<?xml version="1.0" encoding="UTF-8" standalone="no" ?>
<gpx xmlns="http://www.topografix.com/GPX/1/1" xmlns:xsi="http://www.w3.org/2001/XMLSchema-instance" xsi:schemaLocation="http://www.topografix.com/GPX/1/1 http://www.topografix.com/GPX/1/1/gpx.xsd" version="1.1" creator="VisuGPX - https://www.visugpx.com">
  <metadata>
    <name>Circuit St Sé - 15,5 Km avec dénivelé</name>
    <desc><![CDATA[Circuit St Sé allongé d\\\'une boucle ]]></desc>
  </metadata>
  <trk>
    <name><![CDATA[ACTIVE LOG: 22 JAN 2012 09:05]]></name>
    <trkseg>
      <trkpt lat="49.00246" lon="1.08934">
        <ele>107.81</ele>
        <time>2012-01-22T08:06:07Z</time>
      </trkpt>
      <trkpt lat="49.00238" lon="1.0895">
        <ele>107.81</ele>
        <time>2012-01-22T08:06:14Z</time>
      </trkpt>
      <trkpt lat="49.00213" lon="1.08958">
        <ele>108.29</ele>
        <time>2012-01-22T08:06:22Z</time>
      </trkpt>
      <trkpt lat="49.00206" lon="1.08969">
        <ele>108.29</ele>
        <time>2012-01-22T08:06:26Z</time>
      </trkpt>
      <trkpt lat="49.00209" lon="1.09">
        <ele>107.81</ele>
        <time>2012-01-22T08:06:33Z</time>
      </trkpt>
      <trkpt lat="49.00234" lon="1.09051">
        <ele>106.84</ele>
        <time>2012-01-22T08:06:46Z</time>
      </trkpt>
      <trkpt lat="49.00254" lon="1.09094">
        <ele>106.84</ele>
        <time>2012-01-22T08:06:58Z</time>
      </trkpt>
      <trkpt lat="49.00231" lon="1.09134">
        <ele>107.81</ele>
        <time>2012-01-22T08:07:09Z</time>
      </trkpt>
      <trkpt lat="49.00195" lon="1.09146">
        <ele>108.29</ele>
        <time>2012-01-22T08:07:21Z</time>
      </trkpt>
      <trkpt lat="49.00162" lon="1.09168">
        <ele>109.25</ele>
        <time>2012-01-22T08:07:34Z</time>
      </trkpt>
      <trkpt lat="49.00143" lon="1.09197">
        <ele>109.25</ele>
        <time>2012-01-22T08:07:44Z</time>
      </trkpt>
      <trkpt lat="49.00138" lon="1.09243">
        <ele>108.77</ele>
        <time>2012-01-22T08:07:55Z</time>
      </trkpt>
      <trkpt lat="49.00147" lon="1.09282">
        <ele>107.81</ele>
        <time>2012-01-22T08:08:05Z</time>
      </trkpt>
      <trkpt lat="49.00159" lon="1.09335">
        <ele>108.29</ele>
        <time>2012-01-22T08:08:18Z</time>
      </trkpt>
      <trkpt lat="49.00159" lon="1.09373">
        <ele>105.4</ele>
        <time>2012-01-22T08:08:27Z</time>
      </trkpt>
      <trkpt lat="49.00159" lon="1.0938">
        <ele>104.44</ele>
        <time>2012-01-22T08:08:29Z</time>
      </trkpt>
      <trkpt lat="49.00159" lon="1.09392">
        <ele>103</ele>
        <time>2012-01-22T08:08:32Z</time>
      </trkpt>
      <trkpt lat="49.0016" lon="1.09404">
        <ele>101.56</ele>
        <time>2012-01-22T08:08:35Z</time>
      </trkpt>
      <trkpt lat="49.00161" lon="1.0942">
        <ele>99.15</ele>
        <time>2012-01-22T08:08:39Z</time>
      </trkpt>
      <trkpt lat="49.00163" lon="1.09433">
        <ele>97.71</ele>
        <time>2012-01-22T08:08:42Z</time>
      </trkpt>
      <trkpt lat="49.00164" lon="1.09451">
        <ele>95.31</ele>
        <time>2012-01-22T08:08:46Z</time>
      </trkpt>
      <trkpt lat="49.00165" lon="1.09465">
        <ele>93.87</ele>
        <time>2012-01-22T08:08:49Z</time>
      </trkpt>
      <trkpt lat="49.00166" lon="1.09483">
        <ele>91.46</ele>
        <time>2012-01-22T08:08:53Z</time>
      </trkpt>
      <trkpt lat="49.00168" lon="1.09497">
        <ele>89.54</ele>
        <time>2012-01-22T08:08:56Z</time>
      </trkpt>
      <trkpt lat="49.0017" lon="1.09512">
        <ele>87.14</ele>
        <time>2012-01-22T08:09:00Z</time>
      </trkpt>
      <trkpt lat="49.0017" lon="1.09541">
        <ele>84.73</ele>
        <time>2012-01-22T08:09:06Z</time>
      </trkpt>
      <trkpt lat="49.00169" lon="1.09558">
        <ele>81.85</ele>
        <time>2012-01-22T08:09:10Z</time>
      </trkpt>
      <trkpt lat="49.00168" lon="1.09569">
        <ele>79.93</ele>
        <time>2012-01-22T08:09:13Z</time>
      </trkpt>
      <trkpt lat="49.00168" lon="1.09583">
        <ele>77.52</ele>
        <time>2012-01-22T08:09:17Z</time>
      </trkpt>
      <trkpt lat="49.00169" lon="1.09596">
        <ele>75.6</ele>
        <time>2012-01-22T08:09:20Z</time>
      </trkpt>
      <trkpt lat="49.00167" lon="1.09612">
        <ele>73.2</ele>
        <time>2012-01-22T08:09:24Z</time>
      </trkpt>
      <trkpt lat="49.00167" lon="1.09616">
        <ele>72.72</ele>
        <time>2012-01-22T08:09:25Z</time>
      </trkpt>
      <trkpt lat="49.00167" lon="1.09622">
        <ele>71.76</ele>
        <time>2012-01-22T08:09:27Z</time>
      </trkpt>
      <trkpt lat="49.00168" lon="1.09638">
        <ele>69.35</ele>
        <time>2012-01-22T08:09:31Z</time>
      </trkpt>
      <trkpt lat="49.00168" lon="1.09643">
        <ele>68.39</ele>
        <time>2012-01-22T08:09:32Z</time>
      </trkpt>
      <trkpt lat="49.00168" lon="1.09657">
        <ele>66.47</ele>
        <time>2012-01-22T08:09:35Z</time>
      </trkpt>
      <trkpt lat="49.00168" lon="1.09661">
        <ele>65.51</ele>
        <time>2012-01-22T08:09:36Z</time>
      </trkpt>
      <trkpt lat="49.00169" lon="1.09669">
        <ele>64.55</ele>
        <time>2012-01-22T08:09:38Z</time>
      </trkpt>
      <trkpt lat="49.00173" lon="1.097">
        <ele>61.66</ele>
        <time>2012-01-22T08:09:44Z</time>
      </trkpt>
      <trkpt lat="49.00193" lon="1.09756">
        <ele>59.74</ele>
        <time>2012-01-22T08:09:58Z</time>
      </trkpt>
      <trkpt lat="49.00217" lon="1.09797">
        <ele>59.74</ele>
        <time>2012-01-22T08:10:11Z</time>
      </trkpt>
      <trkpt lat="49.00238" lon="1.09836">
        <ele>59.26</ele>
        <time>2012-01-22T08:10:22Z</time>
      </trkpt>
      <trkpt lat="49.0024" lon="1.09885">
        <ele>58.78</ele>
        <time>2012-01-22T08:10:33Z</time>
      </trkpt>
      <trkpt lat="49.00217" lon="1.09922">
        <ele>58.3</ele>
        <time>2012-01-22T08:10:45Z</time>
      </trkpt>
      <trkpt lat="49.00181" lon="1.09957">
        <ele>58.3</ele>
        <time>2012-01-22T08:10:59Z</time>
      </trkpt>
      <trkpt lat="49.00139" lon="1.09999">
        <ele>57.82</ele>
        <time>2012-01-22T08:11:16Z</time>
      </trkpt>
      <trkpt lat="49.00105" lon="1.10025">
        <ele>57.82</ele>
        <time>2012-01-22T08:11:29Z</time>
      </trkpt>
      <trkpt lat="49.00077" lon="1.1005">
        <ele>58.3</ele>
        <time>2012-01-22T08:11:40Z</time>
      </trkpt>
      <trkpt lat="49.00044" lon="1.10064">
        <ele>58.3</ele>
        <time>2012-01-22T08:11:52Z</time>
      </trkpt>
      <trkpt lat="49.00008" lon="1.10079">
        <ele>58.78</ele>
        <time>2012-01-22T08:12:07Z</time>
      </trkpt>
      <trkpt lat="48.99974" lon="1.101">
        <ele>59.26</ele>
        <time>2012-01-22T08:12:21Z</time>
      </trkpt>
      <trkpt lat="48.99957" lon="1.10112">
        <ele>58.78</ele>
        <time>2012-01-22T08:12:27Z</time>
      </trkpt>
      <trkpt lat="48.99944" lon="1.10107">
        <ele>58.3</ele>
        <time>2012-01-22T08:12:32Z</time>
      </trkpt>
      <trkpt lat="48.99923" lon="1.10036">
        <ele>57.34</ele>
        <time>2012-01-22T08:12:49Z</time>
      </trkpt>
      <trkpt lat="48.99907" lon="1.09986">
        <ele>57.34</ele>
        <time>2012-01-22T08:13:02Z</time>
      </trkpt>
      <trkpt lat="48.9989" lon="1.09941">
        <ele>57.82</ele>
        <time>2012-01-22T08:13:15Z</time>
      </trkpt>
      <trkpt lat="48.99871" lon="1.0989">
        <ele>57.82</ele>
        <time>2012-01-22T08:13:28Z</time>
      </trkpt>
      <trkpt lat="48.99854" lon="1.09841">
        <ele>57.82</ele>
        <time>2012-01-22T08:13:41Z</time>
      </trkpt>
      <trkpt lat="48.99838" lon="1.09788">
        <ele>58.3</ele>
        <time>2012-01-22T08:13:55Z</time>
      </trkpt>
      <trkpt lat="48.99826" lon="1.09729">
        <ele>58.3</ele>
        <time>2012-01-22T08:14:10Z</time>
      </trkpt>
      <trkpt lat="48.9982" lon="1.09663">
        <ele>58.3</ele>
        <time>2012-01-22T08:14:25Z</time>
      </trkpt>
      <trkpt lat="48.99813" lon="1.09603">
        <ele>58.78</ele>
        <time>2012-01-22T08:14:39Z</time>
      </trkpt>
      <trkpt lat="48.99802" lon="1.09538">
        <ele>58.78</ele>
        <time>2012-01-22T08:14:55Z</time>
      </trkpt>
      <trkpt lat="48.99781" lon="1.09476">
        <ele>58.78</ele>
        <time>2012-01-22T08:15:11Z</time>
      </trkpt>
      <trkpt lat="48.99762" lon="1.09419">
        <ele>59.74</ele>
        <time>2012-01-22T08:15:26Z</time>
      </trkpt>
      <trkpt lat="48.99747" lon="1.09373">
        <ele>59.74</ele>
        <time>2012-01-22T08:15:39Z</time>
      </trkpt>
      <trkpt lat="48.99733" lon="1.09324">
        <ele>59.26</ele>
        <time>2012-01-22T08:15:52Z</time>
      </trkpt>
      <trkpt lat="48.99719" lon="1.09267">
        <ele>59.74</ele>
        <time>2012-01-22T08:16:06Z</time>
      </trkpt>
      <trkpt lat="48.99706" lon="1.09222">
        <ele>59.74</ele>
        <time>2012-01-22T08:16:17Z</time>
      </trkpt>
      <trkpt lat="48.99695" lon="1.09168">
        <ele>59.74</ele>
        <time>2012-01-22T08:16:30Z</time>
      </trkpt>
      <trkpt lat="48.99682" lon="1.09129">
        <ele>59.74</ele>
        <time>2012-01-22T08:16:40Z</time>
      </trkpt>
      <trkpt lat="48.99668" lon="1.09081">
        <ele>60.22</ele>
        <time>2012-01-22T08:16:52Z</time>
      </trkpt>
      <trkpt lat="48.99661" lon="1.09024">
        <ele>60.7</ele>
        <time>2012-01-22T08:17:06Z</time>
      </trkpt>
      <trkpt lat="48.99647" lon="1.08976">
        <ele>60.7</ele>
        <time>2012-01-22T08:17:18Z</time>
      </trkpt>
      <trkpt lat="48.9963" lon="1.08923">
        <ele>60.7</ele>
        <time>2012-01-22T08:17:32Z</time>
      </trkpt>
      <trkpt lat="48.99611" lon="1.08869">
        <ele>60.7</ele>
        <time>2012-01-22T08:17:46Z</time>
      </trkpt>
      <trkpt lat="48.99594" lon="1.0881">
        <ele>60.7</ele>
        <time>2012-01-22T08:18:01Z</time>
      </trkpt>
      <trkpt lat="48.99581" lon="1.08765">
        <ele>61.18</ele>
        <time>2012-01-22T08:18:13Z</time>
      </trkpt>
      <trkpt lat="48.99568" lon="1.08719">
        <ele>61.18</ele>
        <time>2012-01-22T08:18:25Z</time>
      </trkpt>
      <trkpt lat="48.99554" lon="1.08668">
        <ele>61.66</ele>
        <time>2012-01-22T08:18:38Z</time>
      </trkpt>
      <trkpt lat="48.99542" lon="1.08624">
        <ele>61.66</ele>
        <time>2012-01-22T08:18:49Z</time>
      </trkpt>
      <trkpt lat="48.99532" lon="1.08562">
        <ele>62.14</ele>
        <time>2012-01-22T08:19:04Z</time>
      </trkpt>
      <trkpt lat="48.99525" lon="1.08509">
        <ele>62.14</ele>
        <time>2012-01-22T08:19:17Z</time>
      </trkpt>
      <trkpt lat="48.99516" lon="1.08451">
        <ele>62.14</ele>
        <time>2012-01-22T08:19:31Z</time>
      </trkpt>
      <trkpt lat="48.99511" lon="1.08398">
        <ele>62.14</ele>
        <time>2012-01-22T08:19:44Z</time>
      </trkpt>
      <trkpt lat="48.99499" lon="1.08345">
        <ele>63.1</ele>
        <time>2012-01-22T08:19:57Z</time>
      </trkpt>
      <trkpt lat="48.99488" lon="1.08293">
        <ele>62.62</ele>
        <time>2012-01-22T08:20:10Z</time>
      </trkpt>
      <trkpt lat="48.99476" lon="1.08236">
        <ele>62.62</ele>
        <time>2012-01-22T08:20:24Z</time>
      </trkpt>
      <trkpt lat="48.99464" lon="1.08179">
        <ele>62.62</ele>
        <time>2012-01-22T08:20:38Z</time>
      </trkpt>
      <trkpt lat="48.99454" lon="1.08118">
        <ele>63.1</ele>
        <time>2012-01-22T08:20:52Z</time>
      </trkpt>
      <trkpt lat="48.9945" lon="1.0805">
        <ele>63.1</ele>
        <time>2012-01-22T08:21:08Z</time>
      </trkpt>
      <trkpt lat="48.99448" lon="1.07994">
        <ele>63.58</ele>
        <time>2012-01-22T08:21:21Z</time>
      </trkpt>
      <trkpt lat="48.99451" lon="1.07925">
        <ele>63.1</ele>
        <time>2012-01-22T08:21:38Z</time>
      </trkpt>
      <trkpt lat="48.99452" lon="1.0787">
        <ele>62.62</ele>
        <time>2012-01-22T08:21:51Z</time>
      </trkpt>
      <trkpt lat="48.9945" lon="1.07801">
        <ele>63.1</ele>
        <time>2012-01-22T08:22:06Z</time>
      </trkpt>
      <trkpt lat="48.99451" lon="1.07734">
        <ele>63.58</ele>
        <time>2012-01-22T08:22:22Z</time>
      </trkpt>
      <trkpt lat="48.99474" lon="1.07706">
        <ele>63.58</ele>
        <time>2012-01-22T08:22:33Z</time>
      </trkpt>
      <trkpt lat="48.99509" lon="1.07675">
        <ele>64.07</ele>
        <time>2012-01-22T08:22:49Z</time>
      </trkpt>
      <trkpt lat="48.99545" lon="1.07652">
        <ele>63.58</ele>
        <time>2012-01-22T08:23:03Z</time>
      </trkpt>
      <trkpt lat="48.99575" lon="1.0763">
        <ele>63.58</ele>
        <time>2012-01-22T08:23:15Z</time>
      </trkpt>
      <trkpt lat="48.99583" lon="1.0759">
        <ele>63.58</ele>
        <time>2012-01-22T08:23:26Z</time>
      </trkpt>
      <trkpt lat="48.99593" lon="1.07546">
        <ele>63.58</ele>
        <time>2012-01-22T08:23:38Z</time>
      </trkpt>
      <trkpt lat="48.99623" lon="1.07523">
        <ele>64.07</ele>
        <time>2012-01-22T08:23:50Z</time>
      </trkpt>
      <trkpt lat="48.99661" lon="1.075">
        <ele>65.51</ele>
        <time>2012-01-22T08:24:06Z</time>
      </trkpt>
      <trkpt lat="48.99697" lon="1.07472">
        <ele>66.47</ele>
        <time>2012-01-22T08:24:21Z</time>
      </trkpt>
      <trkpt lat="48.99722" lon="1.07444">
        <ele>65.51</ele>
        <time>2012-01-22T08:24:31Z</time>
      </trkpt>
      <trkpt lat="48.9975" lon="1.07424">
        <ele>65.51</ele>
        <time>2012-01-22T08:24:42Z</time>
      </trkpt>
      <trkpt lat="48.9978" lon="1.07401">
        <ele>66.47</ele>
        <time>2012-01-22T08:24:55Z</time>
      </trkpt>
      <trkpt lat="48.99808" lon="1.07376">
        <ele>67.43</ele>
        <time>2012-01-22T08:25:07Z</time>
      </trkpt>
      <trkpt lat="48.99832" lon="1.07367">
        <ele>68.39</ele>
        <time>2012-01-22T08:25:16Z</time>
      </trkpt>
      <trkpt lat="48.99861" lon="1.07382">
        <ele>69.35</ele>
        <time>2012-01-22T08:25:27Z</time>
      </trkpt>
      <trkpt lat="48.9988" lon="1.07396">
        <ele>71.76</ele>
        <time>2012-01-22T08:25:39Z</time>
      </trkpt>
      <trkpt lat="48.99884" lon="1.07399">
        <ele>72.24</ele>
        <time>2012-01-22T08:25:41Z</time>
      </trkpt>
      <trkpt lat="48.99904" lon="1.07409">
        <ele>74.64</ele>
        <time>2012-01-22T08:25:53Z</time>
      </trkpt>
      <trkpt lat="48.99931" lon="1.07414">
        <ele>76.56</ele>
        <time>2012-01-22T08:26:05Z</time>
      </trkpt>
      <trkpt lat="48.99947" lon="1.07411">
        <ele>77.52</ele>
        <time>2012-01-22T08:26:11Z</time>
      </trkpt>
      <trkpt lat="48.9997" lon="1.07408">
        <ele>79.93</ele>
        <time>2012-01-22T08:26:23Z</time>
      </trkpt>
      <trkpt lat="48.99995" lon="1.07414">
        <ele>82.33</ele>
        <time>2012-01-22T08:26:36Z</time>
      </trkpt>
      <trkpt lat="49.00015" lon="1.0741">
        <ele>84.25</ele>
        <time>2012-01-22T08:26:44Z</time>
      </trkpt>
      <trkpt lat="49.00022" lon="1.07394">
        <ele>86.18</ele>
        <time>2012-01-22T08:26:53Z</time>
      </trkpt>
      <trkpt lat="49.00015" lon="1.07375">
        <ele>88.58</ele>
        <time>2012-01-22T08:27:05Z</time>
      </trkpt>
      <trkpt lat="49.00009" lon="1.07368">
        <ele>89.54</ele>
        <time>2012-01-22T08:27:10Z</time>
      </trkpt>
      <trkpt lat="48.99999" lon="1.07351">
        <ele>91.94</ele>
        <time>2012-01-22T08:27:20Z</time>
      </trkpt>
      <trkpt lat="48.99997" lon="1.07343">
        <ele>92.9</ele>
        <time>2012-01-22T08:27:23Z</time>
      </trkpt>
      <trkpt lat="48.99997" lon="1.07328">
        <ele>93.39</ele>
        <time>2012-01-22T08:27:27Z</time>
      </trkpt>
      <trkpt lat="48.99997" lon="1.07294">
        <ele>95.31</ele>
        <time>2012-01-22T08:27:35Z</time>
      </trkpt>
      <trkpt lat="48.99999" lon="1.07282">
        <ele>96.27</ele>
        <time>2012-01-22T08:27:39Z</time>
      </trkpt>
      <trkpt lat="49.00009" lon="1.0724">
        <ele>99.63</ele>
        <time>2012-01-22T08:27:50Z</time>
      </trkpt>
      <trkpt lat="49.00014" lon="1.0723">
        <ele>100.11</ele>
        <time>2012-01-22T08:27:54Z</time>
      </trkpt>
      <trkpt lat="49.00028" lon="1.07207">
        <ele>102.52</ele>
        <time>2012-01-22T08:28:06Z</time>
      </trkpt>
      <trkpt lat="49.00039" lon="1.07196">
        <ele>104.44</ele>
        <time>2012-01-22T08:28:14Z</time>
      </trkpt>
      <trkpt lat="49.00043" lon="1.07189">
        <ele>105.4</ele>
        <time>2012-01-22T08:28:18Z</time>
      </trkpt>
      <trkpt lat="49.00049" lon="1.07179">
        <ele>106.84</ele>
        <time>2012-01-22T08:28:23Z</time>
      </trkpt>
      <trkpt lat="49.00054" lon="1.07168">
        <ele>108.29</ele>
        <time>2012-01-22T08:28:29Z</time>
      </trkpt>
      <trkpt lat="49.00058" lon="1.07148">
        <ele>110.21</ele>
        <time>2012-01-22T08:28:39Z</time>
      </trkpt>
      <trkpt lat="49.0006" lon="1.07135">
        <ele>111.17</ele>
        <time>2012-01-22T08:28:44Z</time>
      </trkpt>
      <trkpt lat="49.00064" lon="1.07116">
        <ele>113.09</ele>
        <time>2012-01-22T08:28:52Z</time>
      </trkpt>
      <trkpt lat="49.00065" lon="1.07099">
        <ele>114.53</ele>
        <time>2012-01-22T08:28:59Z</time>
      </trkpt>
      <trkpt lat="49.00067" lon="1.07088">
        <ele>115.01</ele>
        <time>2012-01-22T08:29:03Z</time>
      </trkpt>
      <trkpt lat="49.00072" lon="1.0706">
        <ele>115.98</ele>
        <time>2012-01-22T08:29:13Z</time>
      </trkpt>
      <trkpt lat="49.00082" lon="1.07044">
        <ele>116.46</ele>
        <time>2012-01-22T08:29:20Z</time>
      </trkpt>
      <trkpt lat="49.00085" lon="1.07035">
        <ele>117.42</ele>
        <time>2012-01-22T08:29:24Z</time>
      </trkpt>
      <trkpt lat="49.00097" lon="1.07011">
        <ele>118.86</ele>
        <time>2012-01-22T08:29:32Z</time>
      </trkpt>
      <trkpt lat="49.00118" lon="1.06991">
        <ele>120.3</ele>
        <time>2012-01-22T08:29:46Z</time>
      </trkpt>
      <trkpt lat="49.00139" lon="1.06982">
        <ele>120.78</ele>
        <time>2012-01-22T08:29:56Z</time>
      </trkpt>
      <trkpt lat="49.00168" lon="1.06969">
        <ele>122.22</ele>
        <time>2012-01-22T08:30:10Z</time>
      </trkpt>
      <trkpt lat="49.00196" lon="1.06954">
        <ele>122.71</ele>
        <time>2012-01-22T08:30:21Z</time>
      </trkpt>
      <trkpt lat="49.00209" lon="1.06953">
        <ele>122.71</ele>
        <time>2012-01-22T08:30:26Z</time>
      </trkpt>
      <trkpt lat="49.00232" lon="1.06946">
        <ele>123.19</ele>
        <time>2012-01-22T08:30:35Z</time>
      </trkpt>
      <trkpt lat="49.00249" lon="1.06944">
        <ele>123.19</ele>
        <time>2012-01-22T08:30:41Z</time>
      </trkpt>
      <trkpt lat="49.00261" lon="1.06934">
        <ele>123.67</ele>
        <time>2012-01-22T08:30:47Z</time>
      </trkpt>
      <trkpt lat="49.00265" lon="1.06931">
        <ele>123.67</ele>
        <time>2012-01-22T08:30:49Z</time>
      </trkpt>
      <trkpt lat="49.00284" lon="1.06917">
        <ele>124.63</ele>
        <time>2012-01-22T08:30:58Z</time>
      </trkpt>
      <trkpt lat="49.00312" lon="1.06885">
        <ele>125.11</ele>
        <time>2012-01-22T08:31:12Z</time>
      </trkpt>
      <trkpt lat="49.00333" lon="1.06853">
        <ele>125.11</ele>
        <time>2012-01-22T08:31:24Z</time>
      </trkpt>
      <trkpt lat="49.00346" lon="1.06823">
        <ele>125.59</ele>
        <time>2012-01-22T08:31:35Z</time>
      </trkpt>
      <trkpt lat="49.00371" lon="1.0679">
        <ele>125.59</ele>
        <time>2012-01-22T08:31:47Z</time>
      </trkpt>
      <trkpt lat="49.00402" lon="1.06761">
        <ele>125.59</ele>
        <time>2012-01-22T08:32:00Z</time>
      </trkpt>
      <trkpt lat="49.00424" lon="1.06737">
        <ele>125.11</ele>
        <time>2012-01-22T08:32:10Z</time>
      </trkpt>
      <trkpt lat="49.0045" lon="1.06712">
        <ele>123.67</ele>
        <time>2012-01-22T08:32:21Z</time>
      </trkpt>
      <trkpt lat="49.00488" lon="1.06696">
        <ele>122.22</ele>
        <time>2012-01-22T08:32:34Z</time>
      </trkpt>
      <trkpt lat="49.00528" lon="1.06681">
        <ele>120.78</ele>
        <time>2012-01-22T08:32:46Z</time>
      </trkpt>
      <trkpt lat="49.00564" lon="1.06669">
        <ele>120.78</ele>
        <time>2012-01-22T08:32:59Z</time>
      </trkpt>
      <trkpt lat="49.00599" lon="1.06654">
        <ele>120.78</ele>
        <time>2012-01-22T08:33:13Z</time>
      </trkpt>
      <trkpt lat="49.00636" lon="1.06643">
        <ele>121.74</ele>
        <time>2012-01-22T08:33:26Z</time>
      </trkpt>
      <trkpt lat="49.0067" lon="1.06638">
        <ele>122.71</ele>
        <time>2012-01-22T08:33:38Z</time>
      </trkpt>
      <trkpt lat="49.00691" lon="1.06622">
        <ele>123.19</ele>
        <time>2012-01-22T08:33:48Z</time>
      </trkpt>
      <trkpt lat="49.00714" lon="1.06583">
        <ele>123.67</ele>
        <time>2012-01-22T08:34:01Z</time>
      </trkpt>
      <trkpt lat="49.00748" lon="1.06543">
        <ele>124.15</ele>
        <time>2012-01-22T08:34:17Z</time>
      </trkpt>
      <trkpt lat="49.00779" lon="1.06505">
        <ele>124.15</ele>
        <time>2012-01-22T08:34:32Z</time>
      </trkpt>
      <trkpt lat="49.00806" lon="1.06472">
        <ele>123.67</ele>
        <time>2012-01-22T08:34:46Z</time>
      </trkpt>
      <trkpt lat="49.0084" lon="1.06453">
        <ele>123.67</ele>
        <time>2012-01-22T08:35:00Z</time>
      </trkpt>
      <trkpt lat="49.00873" lon="1.06436">
        <ele>122.71</ele>
        <time>2012-01-22T08:35:13Z</time>
      </trkpt>
      <trkpt lat="49.00915" lon="1.06409">
        <ele>122.22</ele>
        <time>2012-01-22T08:35:28Z</time>
      </trkpt>
      <trkpt lat="49.00959" lon="1.06373">
        <ele>119.34</ele>
        <time>2012-01-22T08:35:43Z</time>
      </trkpt>
      <trkpt lat="49.00999" lon="1.06331">
        <ele>116.46</ele>
        <time>2012-01-22T08:35:57Z</time>
      </trkpt>
      <trkpt lat="49.01024" lon="1.06283">
        <ele>115.01</ele>
        <time>2012-01-22T08:36:09Z</time>
      </trkpt>
      <trkpt lat="49.01051" lon="1.06229">
        <ele>114.05</ele>
        <time>2012-01-22T08:36:23Z</time>
      </trkpt>
      <trkpt lat="49.01079" lon="1.06189">
        <ele>114.05</ele>
        <time>2012-01-22T08:36:37Z</time>
      </trkpt>
      <trkpt lat="49.0111" lon="1.06167">
        <ele>115.01</ele>
        <time>2012-01-22T08:36:50Z</time>
      </trkpt>
      <trkpt lat="49.01141" lon="1.06146">
        <ele>115.98</ele>
        <time>2012-01-22T08:37:03Z</time>
      </trkpt>
      <trkpt lat="49.01175" lon="1.06125">
        <ele>116.94</ele>
        <time>2012-01-22T08:37:17Z</time>
      </trkpt>
      <trkpt lat="49.01211" lon="1.06103">
        <ele>117.42</ele>
        <time>2012-01-22T08:37:31Z</time>
      </trkpt>
      <trkpt lat="49.01249" lon="1.06091">
        <ele>117.9</ele>
        <time>2012-01-22T08:37:45Z</time>
      </trkpt>
      <trkpt lat="49.01285" lon="1.06089">
        <ele>117.9</ele>
        <time>2012-01-22T08:37:58Z</time>
      </trkpt>
      <trkpt lat="49.0132" lon="1.06079">
        <ele>117.9</ele>
        <time>2012-01-22T08:38:11Z</time>
      </trkpt>
      <trkpt lat="49.01357" lon="1.06061">
        <ele>116.46</ele>
        <time>2012-01-22T08:38:24Z</time>
      </trkpt>
      <trkpt lat="49.01386" lon="1.06019">
        <ele>115.5</ele>
        <time>2012-01-22T08:38:37Z</time>
      </trkpt>
      <trkpt lat="49.01394" lon="1.0596">
        <ele>113.57</ele>
        <time>2012-01-22T08:38:50Z</time>
      </trkpt>
      <trkpt lat="49.01399" lon="1.05906">
        <ele>111.65</ele>
        <time>2012-01-22T08:39:02Z</time>
      </trkpt>
      <trkpt lat="49.01427" lon="1.05903">
        <ele>108.29</ele>
        <time>2012-01-22T08:39:12Z</time>
      </trkpt>
      <trkpt lat="49.01434" lon="1.05911">
        <ele>107.81</ele>
        <time>2012-01-22T08:39:14Z</time>
      </trkpt>
      <trkpt lat="49.01457" lon="1.05979">
        <ele>103.96</ele>
        <time>2012-01-22T08:39:27Z</time>
      </trkpt>
      <trkpt lat="49.01466" lon="1.06033">
        <ele>100.6</ele>
        <time>2012-01-22T08:39:37Z</time>
      </trkpt>
      <trkpt lat="49.01485" lon="1.06082">
        <ele>97.71</ele>
        <time>2012-01-22T08:39:47Z</time>
      </trkpt>
      <trkpt lat="49.01489" lon="1.06092">
        <ele>97.23</ele>
        <time>2012-01-22T08:39:49Z</time>
      </trkpt>
      <trkpt lat="49.01496" lon="1.06112">
        <ele>96.27</ele>
        <time>2012-01-22T08:39:53Z</time>
      </trkpt>
      <trkpt lat="49.01521" lon="1.06163">
        <ele>94.35</ele>
        <time>2012-01-22T08:40:05Z</time>
      </trkpt>
      <trkpt lat="49.01551" lon="1.06199">
        <ele>95.31</ele>
        <time>2012-01-22T08:40:18Z</time>
      </trkpt>
      <trkpt lat="49.01578" lon="1.06216">
        <ele>98.67</ele>
        <time>2012-01-22T08:40:30Z</time>
      </trkpt>
      <trkpt lat="49.01592" lon="1.06229">
        <ele>102.04</ele>
        <time>2012-01-22T08:40:41Z</time>
      </trkpt>
      <trkpt lat="49.01609" lon="1.06214">
        <ele>105.4</ele>
        <time>2012-01-22T08:40:51Z</time>
      </trkpt>
      <trkpt lat="49.01628" lon="1.0619">
        <ele>108.29</ele>
        <time>2012-01-22T08:41:01Z</time>
      </trkpt>
      <trkpt lat="49.0165" lon="1.06159">
        <ele>111.17</ele>
        <time>2012-01-22T08:41:14Z</time>
      </trkpt>
      <trkpt lat="49.01677" lon="1.06143">
        <ele>114.05</ele>
        <time>2012-01-22T08:41:27Z</time>
      </trkpt>
      <trkpt lat="49.01712" lon="1.06133">
        <ele>116.46</ele>
        <time>2012-01-22T08:41:43Z</time>
      </trkpt>
      <trkpt lat="49.01743" lon="1.06129">
        <ele>116.46</ele>
        <time>2012-01-22T08:41:56Z</time>
      </trkpt>
      <trkpt lat="49.01774" lon="1.06125">
        <ele>116.94</ele>
        <time>2012-01-22T08:42:09Z</time>
      </trkpt>
      <trkpt lat="49.01805" lon="1.06122">
        <ele>116.46</ele>
        <time>2012-01-22T08:42:21Z</time>
      </trkpt>
      <trkpt lat="49.01813" lon="1.06136">
        <ele>116.46</ele>
        <time>2012-01-22T08:42:27Z</time>
      </trkpt>
      <trkpt lat="49.01826" lon="1.06189">
        <ele>116.46</ele>
        <time>2012-01-22T08:42:41Z</time>
      </trkpt>
      <trkpt lat="49.01836" lon="1.0624">
        <ele>116.94</ele>
        <time>2012-01-22T08:42:55Z</time>
      </trkpt>
      <trkpt lat="49.01841" lon="1.06294">
        <ele>116.46</ele>
        <time>2012-01-22T08:43:09Z</time>
      </trkpt>
      <trkpt lat="49.0185" lon="1.06355">
        <ele>116.46</ele>
        <time>2012-01-22T08:43:26Z</time>
      </trkpt>
      <trkpt lat="49.01857" lon="1.06406">
        <ele>115.98</ele>
        <time>2012-01-22T08:43:40Z</time>
      </trkpt>
      <trkpt lat="49.01863" lon="1.06463">
        <ele>115.5</ele>
        <time>2012-01-22T08:43:55Z</time>
      </trkpt>
      <trkpt lat="49.01864" lon="1.06524">
        <ele>115.01</ele>
        <time>2012-01-22T08:44:11Z</time>
      </trkpt>
      <trkpt lat="49.01863" lon="1.06575">
        <ele>115.01</ele>
        <time>2012-01-22T08:44:25Z</time>
      </trkpt>
      <trkpt lat="49.01866" lon="1.06633">
        <ele>115.01</ele>
        <time>2012-01-22T08:44:39Z</time>
      </trkpt>
      <trkpt lat="49.01867" lon="1.06692">
        <ele>113.57</ele>
        <time>2012-01-22T08:44:54Z</time>
      </trkpt>
      <trkpt lat="49.01868" lon="1.06746">
        <ele>113.09</ele>
        <time>2012-01-22T08:45:07Z</time>
      </trkpt>
      <trkpt lat="49.0187" lon="1.06804">
        <ele>111.65</ele>
        <time>2012-01-22T08:45:20Z</time>
      </trkpt>
      <trkpt lat="49.0187" lon="1.06863">
        <ele>109.73</ele>
        <time>2012-01-22T08:45:33Z</time>
      </trkpt>
      <trkpt lat="49.0187" lon="1.0693">
        <ele>107.81</ele>
        <time>2012-01-22T08:45:48Z</time>
      </trkpt>
      <trkpt lat="49.01868" lon="1.06994">
        <ele>105.88</ele>
        <time>2012-01-22T08:46:02Z</time>
      </trkpt>
      <trkpt lat="49.01863" lon="1.07065">
        <ele>103.96</ele>
        <time>2012-01-22T08:46:17Z</time>
      </trkpt>
      <trkpt lat="49.01861" lon="1.0713">
        <ele>101.56</ele>
        <time>2012-01-22T08:46:31Z</time>
      </trkpt>
      <trkpt lat="49.01861" lon="1.07189">
        <ele>98.19</ele>
        <time>2012-01-22T08:46:43Z</time>
      </trkpt>
      <trkpt lat="49.01862" lon="1.07242">
        <ele>95.31</ele>
        <time>2012-01-22T08:46:53Z</time>
      </trkpt>
      <trkpt lat="49.01863" lon="1.07303">
        <ele>91.94</ele>
        <time>2012-01-22T08:47:05Z</time>
      </trkpt>
      <trkpt lat="49.01864" lon="1.07371">
        <ele>90.02</ele>
        <time>2012-01-22T08:47:19Z</time>
      </trkpt>
      <trkpt lat="49.01876" lon="1.07422">
        <ele>90.02</ele>
        <time>2012-01-22T08:47:32Z</time>
      </trkpt>
      <trkpt lat="49.01901" lon="1.07464">
        <ele>89.06</ele>
        <time>2012-01-22T08:47:45Z</time>
      </trkpt>
      <trkpt lat="49.01923" lon="1.07505">
        <ele>87.62</ele>
        <time>2012-01-22T08:47:57Z</time>
      </trkpt>
      <trkpt lat="49.01946" lon="1.07546">
        <ele>86.66</ele>
        <time>2012-01-22T08:48:09Z</time>
      </trkpt>
      <trkpt lat="49.01972" lon="1.07588">
        <ele>86.66</ele>
        <time>2012-01-22T08:48:22Z</time>
      </trkpt>
      <trkpt lat="49.01994" lon="1.07629">
        <ele>86.66</ele>
        <time>2012-01-22T08:48:35Z</time>
      </trkpt>
      <trkpt lat="49.02013" lon="1.07671">
        <ele>86.18</ele>
        <time>2012-01-22T08:48:48Z</time>
      </trkpt>
      <trkpt lat="49.02031" lon="1.07709">
        <ele>86.18</ele>
        <time>2012-01-22T08:49:00Z</time>
      </trkpt>
      <trkpt lat="49.02049" lon="1.07744">
        <ele>86.18</ele>
        <time>2012-01-22T08:49:12Z</time>
      </trkpt>
      <trkpt lat="49.02051" lon="1.07749">
        <ele>86.18</ele>
        <time>2012-01-22T08:49:14Z</time>
      </trkpt>
      <trkpt lat="49.02054" lon="1.07733">
        <ele>85.69</ele>
        <time>2012-01-22T08:49:25Z</time>
      </trkpt>
      <trkpt lat="49.02061" lon="1.07687">
        <ele>86.18</ele>
        <time>2012-01-22T08:49:40Z</time>
      </trkpt>
      <trkpt lat="49.02062" lon="1.07668">
        <ele>86.18</ele>
        <time>2012-01-22T08:49:47Z</time>
      </trkpt>
      <trkpt lat="49.02064" lon="1.07657">
        <ele>86.66</ele>
        <time>2012-01-22T08:49:51Z</time>
      </trkpt>
      <trkpt lat="49.02067" lon="1.07652">
        <ele>87.62</ele>
        <time>2012-01-22T08:49:53Z</time>
      </trkpt>
      <trkpt lat="49.02087" lon="1.0764">
        <ele>90.5</ele>
        <time>2012-01-22T08:50:07Z</time>
      </trkpt>
      <trkpt lat="49.02097" lon="1.07615">
        <ele>93.39</ele>
        <time>2012-01-22T08:50:21Z</time>
      </trkpt>
      <trkpt lat="49.02105" lon="1.07585">
        <ele>96.75</ele>
        <time>2012-01-22T08:50:35Z</time>
      </trkpt>
      <trkpt lat="49.02107" lon="1.07551">
        <ele>100.11</ele>
        <time>2012-01-22T08:50:50Z</time>
      </trkpt>
      <trkpt lat="49.02107" lon="1.07547">
        <ele>100.11</ele>
        <time>2012-01-22T08:50:52Z</time>
      </trkpt>
      <trkpt lat="49.02109" lon="1.07536">
        <ele>101.56</ele>
        <time>2012-01-22T08:50:58Z</time>
      </trkpt>
      <trkpt lat="49.02119" lon="1.07505">
        <ele>104.92</ele>
        <time>2012-01-22T08:51:12Z</time>
      </trkpt>
      <trkpt lat="49.0212" lon="1.075">
        <ele>104.92</ele>
        <time>2012-01-22T08:51:14Z</time>
      </trkpt>
      <trkpt lat="49.02135" lon="1.0747">
        <ele>107.32</ele>
        <time>2012-01-22T08:51:28Z</time>
      </trkpt>
      <trkpt lat="49.0215" lon="1.07447">
        <ele>109.25</ele>
        <time>2012-01-22T08:51:41Z</time>
      </trkpt>
      <trkpt lat="49.02165" lon="1.07434">
        <ele>111.65</ele>
        <time>2012-01-22T08:51:53Z</time>
      </trkpt>
      <trkpt lat="49.02168" lon="1.07433">
        <ele>112.13</ele>
        <time>2012-01-22T08:51:55Z</time>
      </trkpt>
      <trkpt lat="49.02176" lon="1.07438">
        <ele>113.09</ele>
        <time>2012-01-22T08:52:00Z</time>
      </trkpt>
      <trkpt lat="49.0219" lon="1.07461">
        <ele>114.05</ele>
        <time>2012-01-22T08:52:08Z</time>
      </trkpt>
      <trkpt lat="49.02201" lon="1.07487">
        <ele>115.98</ele>
        <time>2012-01-22T08:52:18Z</time>
      </trkpt>
      <trkpt lat="49.02201" lon="1.07489">
        <ele>116.46</ele>
        <time>2012-01-22T08:52:19Z</time>
      </trkpt>
      <trkpt lat="49.0221" lon="1.07526">
        <ele>117.42</ele>
        <time>2012-01-22T08:52:32Z</time>
      </trkpt>
      <trkpt lat="49.02218" lon="1.07557">
        <ele>118.38</ele>
        <time>2012-01-22T08:52:44Z</time>
      </trkpt>
      <trkpt lat="49.02226" lon="1.07591">
        <ele>119.34</ele>
        <time>2012-01-22T08:52:56Z</time>
      </trkpt>
      <trkpt lat="49.02235" lon="1.07624">
        <ele>119.34</ele>
        <time>2012-01-22T08:53:07Z</time>
      </trkpt>
      <trkpt lat="49.02236" lon="1.07628">
        <ele>119.34</ele>
        <time>2012-01-22T08:53:08Z</time>
      </trkpt>
      <trkpt lat="49.02238" lon="1.07638">
        <ele>119.34</ele>
        <time>2012-01-22T08:53:11Z</time>
      </trkpt>
      <trkpt lat="49.02254" lon="1.07677">
        <ele>119.82</ele>
        <time>2012-01-22T08:53:23Z</time>
      </trkpt>
      <trkpt lat="49.02268" lon="1.07722">
        <ele>120.3</ele>
        <time>2012-01-22T08:53:35Z</time>
      </trkpt>
      <trkpt lat="49.02276" lon="1.07763">
        <ele>120.3</ele>
        <time>2012-01-22T08:53:48Z</time>
      </trkpt>
      <trkpt lat="49.02278" lon="1.07776">
        <ele>120.78</ele>
        <time>2012-01-22T08:53:52Z</time>
      </trkpt>
      <trkpt lat="49.02292" lon="1.0782">
        <ele>121.26</ele>
        <time>2012-01-22T08:54:05Z</time>
      </trkpt>
      <trkpt lat="49.02305" lon="1.07862">
        <ele>120.78</ele>
        <time>2012-01-22T08:54:16Z</time>
      </trkpt>
      <trkpt lat="49.02306" lon="1.07865">
        <ele>120.78</ele>
        <time>2012-01-22T08:54:17Z</time>
      </trkpt>
      <trkpt lat="49.0231" lon="1.07887">
        <ele>120.78</ele>
        <time>2012-01-22T08:54:24Z</time>
      </trkpt>
      <trkpt lat="49.02323" lon="1.07919">
        <ele>121.26</ele>
        <time>2012-01-22T08:54:34Z</time>
      </trkpt>
      <trkpt lat="49.02328" lon="1.07928">
        <ele>120.78</ele>
        <time>2012-01-22T08:54:38Z</time>
      </trkpt>
      <trkpt lat="49.02333" lon="1.07939">
        <ele>121.26</ele>
        <time>2012-01-22T08:54:43Z</time>
      </trkpt>
      <trkpt lat="49.02338" lon="1.07943">
        <ele>121.26</ele>
        <time>2012-01-22T08:54:46Z</time>
      </trkpt>
      <trkpt lat="49.02356" lon="1.07959">
        <ele>121.26</ele>
        <time>2012-01-22T08:54:57Z</time>
      </trkpt>
      <trkpt lat="49.02383" lon="1.07978">
        <ele>120.78</ele>
        <time>2012-01-22T08:55:09Z</time>
      </trkpt>
      <trkpt lat="49.02405" lon="1.08">
        <ele>121.26</ele>
        <time>2012-01-22T08:55:19Z</time>
      </trkpt>
      <trkpt lat="49.02438" lon="1.08036">
        <ele>122.71</ele>
        <time>2012-01-22T08:55:33Z</time>
      </trkpt>
      <trkpt lat="49.02442" lon="1.08041">
        <ele>122.71</ele>
        <time>2012-01-22T08:55:35Z</time>
      </trkpt>
      <trkpt lat="49.0247" lon="1.0807">
        <ele>124.63</ele>
        <time>2012-01-22T08:55:52Z</time>
      </trkpt>
      <trkpt lat="49.02492" lon="1.08089">
        <ele>127.03</ele>
        <time>2012-01-22T08:56:04Z</time>
      </trkpt>
      <trkpt lat="49.02516" lon="1.08122">
        <ele>127.51</ele>
        <time>2012-01-22T08:56:18Z</time>
      </trkpt>
      <trkpt lat="49.02541" lon="1.08148">
        <ele>127.51</ele>
        <time>2012-01-22T08:56:30Z</time>
      </trkpt>
      <trkpt lat="49.02564" lon="1.0818">
        <ele>127.03</ele>
        <time>2012-01-22T08:56:43Z</time>
      </trkpt>
      <trkpt lat="49.02581" lon="1.08224">
        <ele>127.03</ele>
        <time>2012-01-22T08:56:56Z</time>
      </trkpt>
      <trkpt lat="49.026" lon="1.08275">
        <ele>127.51</ele>
        <time>2012-01-22T08:57:12Z</time>
      </trkpt>
      <trkpt lat="49.02619" lon="1.08327">
        <ele>127.51</ele>
        <time>2012-01-22T08:57:28Z</time>
      </trkpt>
      <trkpt lat="49.02638" lon="1.08379">
        <ele>127.99</ele>
        <time>2012-01-22T08:57:45Z</time>
      </trkpt>
      <trkpt lat="49.02656" lon="1.08426">
        <ele>128.47</ele>
        <time>2012-01-22T08:58:00Z</time>
      </trkpt>
      <trkpt lat="49.02673" lon="1.08472">
        <ele>128.95</ele>
        <time>2012-01-22T08:58:15Z</time>
      </trkpt>
      <trkpt lat="49.0269" lon="1.08515">
        <ele>129.92</ele>
        <time>2012-01-22T08:58:29Z</time>
      </trkpt>
      <trkpt lat="49.02706" lon="1.08557">
        <ele>130.4</ele>
        <time>2012-01-22T08:58:43Z</time>
      </trkpt>
      <trkpt lat="49.02721" lon="1.08598">
        <ele>130.88</ele>
        <time>2012-01-22T08:58:56Z</time>
      </trkpt>
      <trkpt lat="49.0274" lon="1.08647">
        <ele>131.36</ele>
        <time>2012-01-22T08:59:12Z</time>
      </trkpt>
      <trkpt lat="49.0275" lon="1.08637">
        <ele>131.84</ele>
        <time>2012-01-22T08:59:20Z</time>
      </trkpt>
      <trkpt lat="49.02753" lon="1.08579">
        <ele>131.84</ele>
        <time>2012-01-22T08:59:36Z</time>
      </trkpt>
      <trkpt lat="49.02759" lon="1.08518">
        <ele>131.84</ele>
        <time>2012-01-22T08:59:53Z</time>
      </trkpt>
      <trkpt lat="49.02769" lon="1.08475">
        <ele>131.84</ele>
        <time>2012-01-22T09:00:06Z</time>
      </trkpt>
      <trkpt lat="49.02782" lon="1.08428">
        <ele>131.84</ele>
        <time>2012-01-22T09:00:21Z</time>
      </trkpt>
      <trkpt lat="49.02792" lon="1.08383">
        <ele>132.32</ele>
        <time>2012-01-22T09:00:34Z</time>
      </trkpt>
      <trkpt lat="49.02803" lon="1.08329">
        <ele>131.36</ele>
        <time>2012-01-22T09:00:49Z</time>
      </trkpt>
      <trkpt lat="49.02812" lon="1.08282">
        <ele>131.84</ele>
        <time>2012-01-22T09:01:02Z</time>
      </trkpt>
      <trkpt lat="49.0282" lon="1.08239">
        <ele>131.84</ele>
        <time>2012-01-22T09:01:14Z</time>
      </trkpt>
      <trkpt lat="49.02835" lon="1.08191">
        <ele>131.84</ele>
        <time>2012-01-22T09:01:28Z</time>
      </trkpt>
      <trkpt lat="49.02852" lon="1.0815">
        <ele>131.84</ele>
        <time>2012-01-22T09:01:41Z</time>
      </trkpt>
      <trkpt lat="49.02867" lon="1.08112">
        <ele>131.36</ele>
        <time>2012-01-22T09:01:53Z</time>
      </trkpt>
      <trkpt lat="49.02881" lon="1.08069">
        <ele>131.84</ele>
        <time>2012-01-22T09:02:06Z</time>
      </trkpt>
      <trkpt lat="49.02889" lon="1.08013">
        <ele>131.84</ele>
        <time>2012-01-22T09:02:21Z</time>
      </trkpt>
      <trkpt lat="49.02891" lon="1.07963">
        <ele>131.36</ele>
        <time>2012-01-22T09:02:34Z</time>
      </trkpt>
      <trkpt lat="49.02894" lon="1.07915">
        <ele>131.84</ele>
        <time>2012-01-22T09:02:47Z</time>
      </trkpt>
      <trkpt lat="49.02901" lon="1.07868">
        <ele>131.36</ele>
        <time>2012-01-22T09:03:00Z</time>
      </trkpt>
      <trkpt lat="49.0291" lon="1.07813">
        <ele>130.88</ele>
        <time>2012-01-22T09:03:14Z</time>
      </trkpt>
      <trkpt lat="49.0292" lon="1.07764">
        <ele>130.88</ele>
        <time>2012-01-22T09:03:27Z</time>
      </trkpt>
      <trkpt lat="49.0293" lon="1.07712">
        <ele>130.4</ele>
        <time>2012-01-22T09:03:40Z</time>
      </trkpt>
      <trkpt lat="49.0294" lon="1.07661">
        <ele>130.4</ele>
        <time>2012-01-22T09:03:53Z</time>
      </trkpt>
      <trkpt lat="49.02948" lon="1.07607">
        <ele>129.92</ele>
        <time>2012-01-22T09:04:07Z</time>
      </trkpt>
      <trkpt lat="49.02952" lon="1.07558">
        <ele>128.95</ele>
        <time>2012-01-22T09:04:20Z</time>
      </trkpt>
      <trkpt lat="49.02954" lon="1.07515">
        <ele>128.95</ele>
        <time>2012-01-22T09:04:32Z</time>
      </trkpt>
      <trkpt lat="49.02953" lon="1.07461">
        <ele>128.47</ele>
        <time>2012-01-22T09:04:47Z</time>
      </trkpt>
      <trkpt lat="49.02946" lon="1.07414">
        <ele>127.99</ele>
        <time>2012-01-22T09:04:59Z</time>
      </trkpt>
      <trkpt lat="49.02936" lon="1.07369">
        <ele>127.51</ele>
        <time>2012-01-22T09:05:12Z</time>
      </trkpt>
      <trkpt lat="49.02927" lon="1.07325">
        <ele>127.99</ele>
        <time>2012-01-22T09:05:24Z</time>
      </trkpt>
      <trkpt lat="49.0292" lon="1.0729">
        <ele>127.99</ele>
        <time>2012-01-22T09:05:34Z</time>
      </trkpt>
      <trkpt lat="49.02914" lon="1.07252">
        <ele>128.47</ele>
        <time>2012-01-22T09:05:46Z</time>
      </trkpt>
      <trkpt lat="49.0291" lon="1.07214">
        <ele>128.95</ele>
        <time>2012-01-22T09:05:56Z</time>
      </trkpt>
      <trkpt lat="49.02908" lon="1.07168">
        <ele>128.95</ele>
        <time>2012-01-22T09:06:09Z</time>
      </trkpt>
      <trkpt lat="49.02913" lon="1.0712">
        <ele>128.95</ele>
        <time>2012-01-22T09:06:21Z</time>
      </trkpt>
      <trkpt lat="49.02913" lon="1.07113">
        <ele>129.43</ele>
        <time>2012-01-22T09:06:24Z</time>
      </trkpt>
      <trkpt lat="49.0291" lon="1.0711">
        <ele>129.43</ele>
        <time>2012-01-22T09:06:27Z</time>
      </trkpt>
      <trkpt lat="49.02891" lon="1.07127">
        <ele>130.88</ele>
        <time>2012-01-22T09:06:40Z</time>
      </trkpt>
      <trkpt lat="49.0287" lon="1.07133">
        <ele>130.88</ele>
        <time>2012-01-22T09:06:51Z</time>
      </trkpt>
      <trkpt lat="49.02844" lon="1.07143">
        <ele>131.36</ele>
        <time>2012-01-22T09:07:02Z</time>
      </trkpt>
      <trkpt lat="49.02816" lon="1.07157">
        <ele>132.32</ele>
        <time>2012-01-22T09:07:14Z</time>
      </trkpt>
      <trkpt lat="49.02779" lon="1.0717">
        <ele>132.32</ele>
        <time>2012-01-22T09:07:28Z</time>
      </trkpt>
      <trkpt lat="49.02751" lon="1.07178">
        <ele>132.8</ele>
        <time>2012-01-22T09:07:40Z</time>
      </trkpt>
      <trkpt lat="49.02717" lon="1.07189">
        <ele>132.32</ele>
        <time>2012-01-22T09:07:53Z</time>
      </trkpt>
      <trkpt lat="49.02687" lon="1.07199">
        <ele>131.36</ele>
        <time>2012-01-22T09:08:05Z</time>
      </trkpt>
      <trkpt lat="49.02648" lon="1.07211">
        <ele>130.4</ele>
        <time>2012-01-22T09:08:19Z</time>
      </trkpt>
      <trkpt lat="49.02616" lon="1.07221">
        <ele>129.92</ele>
        <time>2012-01-22T09:08:31Z</time>
      </trkpt>
      <trkpt lat="49.02612" lon="1.07223">
        <ele>129.92</ele>
        <time>2012-01-22T09:08:33Z</time>
      </trkpt>
      <trkpt lat="49.02606" lon="1.07224">
        <ele>129.43</ele>
        <time>2012-01-22T09:08:37Z</time>
      </trkpt>
      <trkpt lat="49.02576" lon="1.07227">
        <ele>128.47</ele>
        <time>2012-01-22T09:08:48Z</time>
      </trkpt>
      <trkpt lat="49.02547" lon="1.07239">
        <ele>127.51</ele>
        <time>2012-01-22T09:08:58Z</time>
      </trkpt>
      <trkpt lat="49.02513" lon="1.07253">
        <ele>127.03</ele>
        <time>2012-01-22T09:09:11Z</time>
      </trkpt>
      <trkpt lat="49.02475" lon="1.07265">
        <ele>126.55</ele>
        <time>2012-01-22T09:09:24Z</time>
      </trkpt>
      <trkpt lat="49.02446" lon="1.0728">
        <ele>126.55</ele>
        <time>2012-01-22T09:09:35Z</time>
      </trkpt>
      <trkpt lat="49.02419" lon="1.07292">
        <ele>125.59</ele>
        <time>2012-01-22T09:09:44Z</time>
      </trkpt>
      <trkpt lat="49.02394" lon="1.07299">
        <ele>124.63</ele>
        <time>2012-01-22T09:09:54Z</time>
      </trkpt>
      <trkpt lat="49.02358" lon="1.07311">
        <ele>124.15</ele>
        <time>2012-01-22T09:10:06Z</time>
      </trkpt>
      <trkpt lat="49.02325" lon="1.07325">
        <ele>122.71</ele>
        <time>2012-01-22T09:10:18Z</time>
      </trkpt>
      <trkpt lat="49.0228" lon="1.07341">
        <ele>121.26</ele>
        <time>2012-01-22T09:10:33Z</time>
      </trkpt>
      <trkpt lat="49.02257" lon="1.07344">
        <ele>119.34</ele>
        <time>2012-01-22T09:10:41Z</time>
      </trkpt>
      <trkpt lat="49.02225" lon="1.07369">
        <ele>116.94</ele>
        <time>2012-01-22T09:10:55Z</time>
      </trkpt>
      <trkpt lat="49.02205" lon="1.07405">
        <ele>115.98</ele>
        <time>2012-01-22T09:11:06Z</time>
      </trkpt>
      <trkpt lat="49.02178" lon="1.07447">
        <ele>114.53</ele>
        <time>2012-01-22T09:11:19Z</time>
      </trkpt>
      <trkpt lat="49.02155" lon="1.07469">
        <ele>111.65</ele>
        <time>2012-01-22T09:11:27Z</time>
      </trkpt>
      <trkpt lat="49.02129" lon="1.07508">
        <ele>108.77</ele>
        <time>2012-01-22T09:11:39Z</time>
      </trkpt>
      <trkpt lat="49.02119" lon="1.07532">
        <ele>105.88</ele>
        <time>2012-01-22T09:11:46Z</time>
      </trkpt>
      <trkpt lat="49.02115" lon="1.07568">
        <ele>102.52</ele>
        <time>2012-01-22T09:11:55Z</time>
      </trkpt>
      <trkpt lat="49.0211" lon="1.07614">
        <ele>99.15</ele>
        <time>2012-01-22T09:12:05Z</time>
      </trkpt>
      <trkpt lat="49.02104" lon="1.07628">
        <ele>97.71</ele>
        <time>2012-01-22T09:12:08Z</time>
      </trkpt>
      <trkpt lat="49.02088" lon="1.07649">
        <ele>94.83</ele>
        <time>2012-01-22T09:12:14Z</time>
      </trkpt>
      <trkpt lat="49.02073" lon="1.07658">
        <ele>92.9</ele>
        <time>2012-01-22T09:12:19Z</time>
      </trkpt>
      <trkpt lat="49.0207" lon="1.07659">
        <ele>92.42</ele>
        <time>2012-01-22T09:12:20Z</time>
      </trkpt>
      <trkpt lat="49.02064" lon="1.07683">
        <ele>90.02</ele>
        <time>2012-01-22T09:12:27Z</time>
      </trkpt>
      <trkpt lat="49.02058" lon="1.0773">
        <ele>89.06</ele>
        <time>2012-01-22T09:12:39Z</time>
      </trkpt>
      <trkpt lat="49.02037" lon="1.07776">
        <ele>89.54</ele>
        <time>2012-01-22T09:12:52Z</time>
      </trkpt>
      <trkpt lat="49.02018" lon="1.07812">
        <ele>91.46</ele>
        <time>2012-01-22T09:13:06Z</time>
      </trkpt>
      <trkpt lat="49.02011" lon="1.07819">
        <ele>92.42</ele>
        <time>2012-01-22T09:13:10Z</time>
      </trkpt>
      <trkpt lat="49.02004" lon="1.07827">
        <ele>93.39</ele>
        <time>2012-01-22T09:13:15Z</time>
      </trkpt>
      <trkpt lat="49.01975" lon="1.07836">
        <ele>95.79</ele>
        <time>2012-01-22T09:13:29Z</time>
      </trkpt>
      <trkpt lat="49.01951" lon="1.07828">
        <ele>98.19</ele>
        <time>2012-01-22T09:13:42Z</time>
      </trkpt>
      <trkpt lat="49.01948" lon="1.07828">
        <ele>98.19</ele>
        <time>2012-01-22T09:13:43Z</time>
      </trkpt>
      <trkpt lat="49.01923" lon="1.07828">
        <ele>101.08</ele>
        <time>2012-01-22T09:13:56Z</time>
      </trkpt>
      <trkpt lat="49.01901" lon="1.07833">
        <ele>103.48</ele>
        <time>2012-01-22T09:14:09Z</time>
      </trkpt>
      <trkpt lat="49.01884" lon="1.0784">
        <ele>105.88</ele>
        <time>2012-01-22T09:14:22Z</time>
      </trkpt>
      <trkpt lat="49.01864" lon="1.07847">
        <ele>109.25</ele>
        <time>2012-01-22T09:14:35Z</time>
      </trkpt>
      <trkpt lat="49.01847" lon="1.07853">
        <ele>111.65</ele>
        <time>2012-01-22T09:14:47Z</time>
      </trkpt>
      <trkpt lat="49.01826" lon="1.07861">
        <ele>114.05</ele>
        <time>2012-01-22T09:15:02Z</time>
      </trkpt>
      <trkpt lat="49.01805" lon="1.07865">
        <ele>115.5</ele>
        <time>2012-01-22T09:15:14Z</time>
      </trkpt>
      <trkpt lat="49.01801" lon="1.07866">
        <ele>115.98</ele>
        <time>2012-01-22T09:15:16Z</time>
      </trkpt>
      <trkpt lat="49.01795" lon="1.07873">
        <ele>116.46</ele>
        <time>2012-01-22T09:15:21Z</time>
      </trkpt>
      <trkpt lat="49.01801" lon="1.07899">
        <ele>118.38</ele>
        <time>2012-01-22T09:15:34Z</time>
      </trkpt>
      <trkpt lat="49.01807" lon="1.0792">
        <ele>118.86</ele>
        <time>2012-01-22T09:15:43Z</time>
      </trkpt>
      <trkpt lat="49.01817" lon="1.07952">
        <ele>120.3</ele>
        <time>2012-01-22T09:15:56Z</time>
      </trkpt>
      <trkpt lat="49.01826" lon="1.07974">
        <ele>120.78</ele>
        <time>2012-01-22T09:16:05Z</time>
      </trkpt>
      <trkpt lat="49.0183" lon="1.07994">
        <ele>121.26</ele>
        <time>2012-01-22T09:16:12Z</time>
      </trkpt>
      <trkpt lat="49.01832" lon="1.08006">
        <ele>121.74</ele>
        <time>2012-01-22T09:16:17Z</time>
      </trkpt>
      <trkpt lat="49.01833" lon="1.08012">
        <ele>121.26</ele>
        <time>2012-01-22T09:16:19Z</time>
      </trkpt>
      <trkpt lat="49.01835" lon="1.08026">
        <ele>121.74</ele>
        <time>2012-01-22T09:16:24Z</time>
      </trkpt>
      <trkpt lat="49.01838" lon="1.08037">
        <ele>121.74</ele>
        <time>2012-01-22T09:16:27Z</time>
      </trkpt>
      <trkpt lat="49.01848" lon="1.08068">
        <ele>122.71</ele>
        <time>2012-01-22T09:16:38Z</time>
      </trkpt>
      <trkpt lat="49.0185" lon="1.08088">
        <ele>123.67</ele>
        <time>2012-01-22T09:16:46Z</time>
      </trkpt>
      <trkpt lat="49.01852" lon="1.08101">
        <ele>124.15</ele>
        <time>2012-01-22T09:16:50Z</time>
      </trkpt>
      <trkpt lat="49.01864" lon="1.08152">
        <ele>125.11</ele>
        <time>2012-01-22T09:17:05Z</time>
      </trkpt>
      <trkpt lat="49.0187" lon="1.08168">
        <ele>125.59</ele>
        <time>2012-01-22T09:17:10Z</time>
      </trkpt>
      <trkpt lat="49.01878" lon="1.082">
        <ele>126.07</ele>
        <time>2012-01-22T09:17:20Z</time>
      </trkpt>
      <trkpt lat="49.0188" lon="1.0821">
        <ele>126.07</ele>
        <time>2012-01-22T09:17:23Z</time>
      </trkpt>
      <trkpt lat="49.0189" lon="1.08255">
        <ele>126.55</ele>
        <time>2012-01-22T09:17:37Z</time>
      </trkpt>
      <trkpt lat="49.0189" lon="1.08258">
        <ele>126.55</ele>
        <time>2012-01-22T09:17:38Z</time>
      </trkpt>
      <trkpt lat="49.019" lon="1.083">
        <ele>126.55</ele>
        <time>2012-01-22T09:17:49Z</time>
      </trkpt>
      <trkpt lat="49.01907" lon="1.08342">
        <ele>127.03</ele>
        <time>2012-01-22T09:18:01Z</time>
      </trkpt>
      <trkpt lat="49.01916" lon="1.08378">
        <ele>126.55</ele>
        <time>2012-01-22T09:18:11Z</time>
      </trkpt>
      <trkpt lat="49.01925" lon="1.08416">
        <ele>126.07</ele>
        <time>2012-01-22T09:18:21Z</time>
      </trkpt>
      <trkpt lat="49.01934" lon="1.08463">
        <ele>126.07</ele>
        <time>2012-01-22T09:18:34Z</time>
      </trkpt>
      <trkpt lat="49.01943" lon="1.08503">
        <ele>125.59</ele>
        <time>2012-01-22T09:18:46Z</time>
      </trkpt>
      <trkpt lat="49.01956" lon="1.08551">
        <ele>125.59</ele>
        <time>2012-01-22T09:18:59Z</time>
      </trkpt>
      <trkpt lat="49.01967" lon="1.0859">
        <ele>125.59</ele>
        <time>2012-01-22T09:19:09Z</time>
      </trkpt>
      <trkpt lat="49.01978" lon="1.0864">
        <ele>125.59</ele>
        <time>2012-01-22T09:19:23Z</time>
      </trkpt>
      <trkpt lat="49.01989" lon="1.08682">
        <ele>125.11</ele>
        <time>2012-01-22T09:19:35Z</time>
      </trkpt>
      <trkpt lat="49.02001" lon="1.08729">
        <ele>124.63</ele>
        <time>2012-01-22T09:19:48Z</time>
      </trkpt>
      <trkpt lat="49.02012" lon="1.08773">
        <ele>124.63</ele>
        <time>2012-01-22T09:20:00Z</time>
      </trkpt>
      <trkpt lat="49.02023" lon="1.08816">
        <ele>124.63</ele>
        <time>2012-01-22T09:20:12Z</time>
      </trkpt>
      <trkpt lat="49.02032" lon="1.08867">
        <ele>124.15</ele>
        <time>2012-01-22T09:20:26Z</time>
      </trkpt>
      <trkpt lat="49.02043" lon="1.08916">
        <ele>123.67</ele>
        <time>2012-01-22T09:20:38Z</time>
      </trkpt>
      <trkpt lat="49.02053" lon="1.08966">
        <ele>123.19</ele>
        <time>2012-01-22T09:20:52Z</time>
      </trkpt>
      <trkpt lat="49.0206" lon="1.09003">
        <ele>122.71</ele>
        <time>2012-01-22T09:21:03Z</time>
      </trkpt>
      <trkpt lat="49.02062" lon="1.0901">
        <ele>122.71</ele>
        <time>2012-01-22T09:21:05Z</time>
      </trkpt>
      <trkpt lat="49.02066" lon="1.09023">
        <ele>122.71</ele>
        <time>2012-01-22T09:21:09Z</time>
      </trkpt>
      <trkpt lat="49.02078" lon="1.09057">
        <ele>122.22</ele>
        <time>2012-01-22T09:21:17Z</time>
      </trkpt>
      <trkpt lat="49.02048" lon="1.09096">
        <ele>123.19</ele>
        <time>2012-01-22T09:21:29Z</time>
      </trkpt>
      <trkpt lat="49.02025" lon="1.09108">
        <ele>123.67</ele>
        <time>2012-01-22T09:21:39Z</time>
      </trkpt>
      <trkpt lat="49.01997" lon="1.09128">
        <ele>124.63</ele>
        <time>2012-01-22T09:21:51Z</time>
      </trkpt>
      <trkpt lat="49.01981" lon="1.09138">
        <ele>125.11</ele>
        <time>2012-01-22T09:21:58Z</time>
      </trkpt>
      <trkpt lat="49.01975" lon="1.09138">
        <ele>125.59</ele>
        <time>2012-01-22T09:22:01Z</time>
      </trkpt>
      <trkpt lat="49.01968" lon="1.09138">
        <ele>126.07</ele>
        <time>2012-01-22T09:22:05Z</time>
      </trkpt>
      <trkpt lat="49.01926" lon="1.09147">
        <ele>127.03</ele>
        <time>2012-01-22T09:22:22Z</time>
      </trkpt>
      <trkpt lat="49.01886" lon="1.09129">
        <ele>127.51</ele>
        <time>2012-01-22T09:22:37Z</time>
      </trkpt>
      <trkpt lat="49.01857" lon="1.09107">
        <ele>128.47</ele>
        <time>2012-01-22T09:22:50Z</time>
      </trkpt>
      <trkpt lat="49.01828" lon="1.09081">
        <ele>129.43</ele>
        <time>2012-01-22T09:23:04Z</time>
      </trkpt>
      <trkpt lat="49.01795" lon="1.09056">
        <ele>128.95</ele>
        <time>2012-01-22T09:23:19Z</time>
      </trkpt>
      <trkpt lat="49.0176" lon="1.09027">
        <ele>128.95</ele>
        <time>2012-01-22T09:23:35Z</time>
      </trkpt>
      <trkpt lat="49.0173" lon="1.08999">
        <ele>128.95</ele>
        <time>2012-01-22T09:23:49Z</time>
      </trkpt>
      <trkpt lat="49.0171" lon="1.08963">
        <ele>128.95</ele>
        <time>2012-01-22T09:24:01Z</time>
      </trkpt>
      <trkpt lat="49.01683" lon="1.08932">
        <ele>128.95</ele>
        <time>2012-01-22T09:24:14Z</time>
      </trkpt>
      <trkpt lat="49.01647" lon="1.08918">
        <ele>128.47</ele>
        <time>2012-01-22T09:24:28Z</time>
      </trkpt>
      <trkpt lat="49.01622" lon="1.08913">
        <ele>128.47</ele>
        <time>2012-01-22T09:24:38Z</time>
      </trkpt>
      <trkpt lat="49.01614" lon="1.08923">
        <ele>128.47</ele>
        <time>2012-01-22T09:24:42Z</time>
      </trkpt>
      <trkpt lat="49.01617" lon="1.08986">
        <ele>128.47</ele>
        <time>2012-01-22T09:24:57Z</time>
      </trkpt>
      <trkpt lat="49.01616" lon="1.0904">
        <ele>128.95</ele>
        <time>2012-01-22T09:25:10Z</time>
      </trkpt>
      <trkpt lat="49.01617" lon="1.09092">
        <ele>128.95</ele>
        <time>2012-01-22T09:25:23Z</time>
      </trkpt>
      <trkpt lat="49.01621" lon="1.09146">
        <ele>129.43</ele>
        <time>2012-01-22T09:25:37Z</time>
      </trkpt>
      <trkpt lat="49.01625" lon="1.09217">
        <ele>130.4</ele>
        <time>2012-01-22T09:25:55Z</time>
      </trkpt>
      <trkpt lat="49.01628" lon="1.09273">
        <ele>130.4</ele>
        <time>2012-01-22T09:26:09Z</time>
      </trkpt>
      <trkpt lat="49.01629" lon="1.09289">
        <ele>130.4</ele>
        <time>2012-01-22T09:26:13Z</time>
      </trkpt>
      <trkpt lat="49.01623" lon="1.09305">
        <ele>130.4</ele>
        <time>2012-01-22T09:26:18Z</time>
      </trkpt>
      <trkpt lat="49.0158" lon="1.09303">
        <ele>130.4</ele>
        <time>2012-01-22T09:26:32Z</time>
      </trkpt>
      <trkpt lat="49.0154" lon="1.09307">
        <ele>129.92</ele>
        <time>2012-01-22T09:26:46Z</time>
      </trkpt>
      <trkpt lat="49.01512" lon="1.09283">
        <ele>128.47</ele>
        <time>2012-01-22T09:26:58Z</time>
      </trkpt>
      <trkpt lat="49.01483" lon="1.09244">
        <ele>127.51</ele>
        <time>2012-01-22T09:27:12Z</time>
      </trkpt>
      <trkpt lat="49.01455" lon="1.09222">
        <ele>126.55</ele>
        <time>2012-01-22T09:27:24Z</time>
      </trkpt>
      <trkpt lat="49.01419" lon="1.09234">
        <ele>125.59</ele>
        <time>2012-01-22T09:27:37Z</time>
      </trkpt>
      <trkpt lat="49.01403" lon="1.09204">
        <ele>124.63</ele>
        <time>2012-01-22T09:27:46Z</time>
      </trkpt>
      <trkpt lat="49.01383" lon="1.09158">
        <ele>123.67</ele>
        <time>2012-01-22T09:28:00Z</time>
      </trkpt>
      <trkpt lat="49.01347" lon="1.09144">
        <ele>122.71</ele>
        <time>2012-01-22T09:28:14Z</time>
      </trkpt>
      <trkpt lat="49.01313" lon="1.09134">
        <ele>123.19</ele>
        <time>2012-01-22T09:28:28Z</time>
      </trkpt>
      <trkpt lat="49.01282" lon="1.09125">
        <ele>125.11</ele>
        <time>2012-01-22T09:28:41Z</time>
      </trkpt>
      <trkpt lat="49.01246" lon="1.09125">
        <ele>125.59</ele>
        <time>2012-01-22T09:28:57Z</time>
      </trkpt>
      <trkpt lat="49.0124" lon="1.09125">
        <ele>125.59</ele>
        <time>2012-01-22T09:29:00Z</time>
      </trkpt>
      <trkpt lat="49.01211" lon="1.09132">
        <ele>127.51</ele>
        <time>2012-01-22T09:29:13Z</time>
      </trkpt>
      <trkpt lat="49.01183" lon="1.09154">
        <ele>128.95</ele>
        <time>2012-01-22T09:29:26Z</time>
      </trkpt>
      <trkpt lat="49.01155" lon="1.09161">
        <ele>130.88</ele>
        <time>2012-01-22T09:29:38Z</time>
      </trkpt>
      <trkpt lat="49.01121" lon="1.09168">
        <ele>133.28</ele>
        <time>2012-01-22T09:29:51Z</time>
      </trkpt>
      <trkpt lat="49.01098" lon="1.09137">
        <ele>134.24</ele>
        <time>2012-01-22T09:30:03Z</time>
      </trkpt>
      <trkpt lat="49.01099" lon="1.0908">
        <ele>133.76</ele>
        <time>2012-01-22T09:30:16Z</time>
      </trkpt>
      <trkpt lat="49.01103" lon="1.09026">
        <ele>132.32</ele>
        <time>2012-01-22T09:30:29Z</time>
      </trkpt>
      <trkpt lat="49.01081" lon="1.08968">
        <ele>131.84</ele>
        <time>2012-01-22T09:30:46Z</time>
      </trkpt>
      <trkpt lat="49.0105" lon="1.08919">
        <ele>131.84</ele>
        <time>2012-01-22T09:31:03Z</time>
      </trkpt>
      <trkpt lat="49.01027" lon="1.08874">
        <ele>131.84</ele>
        <time>2012-01-22T09:31:18Z</time>
      </trkpt>
      <trkpt lat="49.01001" lon="1.08835">
        <ele>131.84</ele>
        <time>2012-01-22T09:31:31Z</time>
      </trkpt>
      <trkpt lat="49.00975" lon="1.08812">
        <ele>132.32</ele>
        <time>2012-01-22T09:31:43Z</time>
      </trkpt>
      <trkpt lat="49.00946" lon="1.08797">
        <ele>133.28</ele>
        <time>2012-01-22T09:31:57Z</time>
      </trkpt>
      <trkpt lat="49.00918" lon="1.08803">
        <ele>133.76</ele>
        <time>2012-01-22T09:32:08Z</time>
      </trkpt>
      <trkpt lat="49.00885" lon="1.08812">
        <ele>132.8</ele>
        <time>2012-01-22T09:32:20Z</time>
      </trkpt>
      <trkpt lat="49.00851" lon="1.08827">
        <ele>133.76</ele>
        <time>2012-01-22T09:32:32Z</time>
      </trkpt>
      <trkpt lat="49.00825" lon="1.08791">
        <ele>132.8</ele>
        <time>2012-01-22T09:32:43Z</time>
      </trkpt>
      <trkpt lat="49.0082" lon="1.08765">
        <ele>133.28</ele>
        <time>2012-01-22T09:32:48Z</time>
      </trkpt>
      <trkpt lat="49.00812" lon="1.08745">
        <ele>133.28</ele>
        <time>2012-01-22T09:32:55Z</time>
      </trkpt>
      <trkpt lat="49.00813" lon="1.08746">
        <ele>133.28</ele>
        <time>2012-01-22T09:32:58Z</time>
      </trkpt>
      <trkpt lat="49.00814" lon="1.08736">
        <ele>133.28</ele>
        <time>2012-01-22T09:33:04Z</time>
      </trkpt>
      <trkpt lat="49.00784" lon="1.08765">
        <ele>133.28</ele>
        <time>2012-01-22T09:33:18Z</time>
      </trkpt>
      <trkpt lat="49.00747" lon="1.08783">
        <ele>133.28</ele>
        <time>2012-01-22T09:33:32Z</time>
      </trkpt>
      <trkpt lat="49.00714" lon="1.08799">
        <ele>132.32</ele>
        <time>2012-01-22T09:33:45Z</time>
      </trkpt>
      <trkpt lat="49.00681" lon="1.0882">
        <ele>132.8</ele>
        <time>2012-01-22T09:33:58Z</time>
      </trkpt>
      <trkpt lat="49.00657" lon="1.08834">
        <ele>132.32</ele>
        <time>2012-01-22T09:34:08Z</time>
      </trkpt>
      <trkpt lat="49.00622" lon="1.0885">
        <ele>132.32</ele>
        <time>2012-01-22T09:34:22Z</time>
      </trkpt>
      <trkpt lat="49.00577" lon="1.08878">
        <ele>132.8</ele>
        <time>2012-01-22T09:34:40Z</time>
      </trkpt>
      <trkpt lat="49.00537" lon="1.08904">
        <ele>133.28</ele>
        <time>2012-01-22T09:34:55Z</time>
      </trkpt>
      <trkpt lat="49.005" lon="1.08925">
        <ele>133.76</ele>
        <time>2012-01-22T09:35:10Z</time>
      </trkpt>
      <trkpt lat="49.00467" lon="1.08944">
        <ele>133.76</ele>
        <time>2012-01-22T09:35:22Z</time>
      </trkpt>
      <trkpt lat="49.00436" lon="1.08962">
        <ele>133.28</ele>
        <time>2012-01-22T09:35:33Z</time>
      </trkpt>
      <trkpt lat="49.00393" lon="1.08988">
        <ele>132.32</ele>
        <time>2012-01-22T09:35:47Z</time>
      </trkpt>
      <trkpt lat="49.00356" lon="1.09011">
        <ele>131.36</ele>
        <time>2012-01-22T09:36:00Z</time>
      </trkpt>
      <trkpt lat="49.00323" lon="1.09033">
        <ele>129.92</ele>
        <time>2012-01-22T09:36:11Z</time>
      </trkpt>
      <trkpt lat="49.00281" lon="1.09048">
        <ele>127.51</ele>
        <time>2012-01-22T09:36:23Z</time>
      </trkpt>
      <trkpt lat="49.00263" lon="1.09031">
        <ele>125.59</ele>
        <time>2012-01-22T09:36:30Z</time>
      </trkpt>
      <trkpt lat="49.00253" lon="1.08956">
        <ele>125.11</ele>
        <time>2012-01-22T09:36:43Z</time>
      </trkpt>
      <trkpt lat="49.00246" lon="1.08938">
        <ele>124.63</ele>
        <time>2012-01-22T09:36:51Z</time>
      </trkpt>
    </trkseg>
  </trk>
</gpx>